Time;durP1;ratioP1;P1;durP2;ratioP2;P2;SDS_P1;SDS_P2;PMS_P1;PMS_P2;Temp;Humidity;BMP_temperature;BMP_pressure;BME280_temperature;BME280_humidity;BME280_pressure;Samples;Min_cycle;Max_cycle;Signal;HPM_P1;HPM_P2
2022/08/11 00:00:39;;;;;;;1.53;1.40;;;21.80;50.70;22.20;96964.00;;;;5115908;28;20678;-87
2022/08/11 00:03:09;;;;;;;1.07;1.00;;;21.80;50.50;22.30;96962.00;;;;5115939;28;20289;-84
2022/08/11 00:05:47;;;;;;;2.10;1.03;;;21.80;50.50;22.30;96963.00;;;;5113979;28;20225;-87
2022/08/11 00:08:23;;;;;;;1.57;1.47;;;21.80;50.60;22.30;96963.00;;;;5095649;28;20313;-87
2022/08/11 00:10:58;;;;;;;1.57;1.20;;;21.80;50.70;22.30;96969.00;;;;5104453;28;20277;-86
2022/08/11 00:13:34;;;;;;;1.63;1.03;;;21.80;50.80;22.30;96963.00;;;;5115971;28;20272;-87
2022/08/11 00:16:06;;;;;;;1.27;1.10;;;21.80;51.20;22.30;96966.00;;;;5114914;28;20184;-87
2022/08/11 00:18:41;;;;;;;1.50;1.40;;;21.80;50.60;22.30;96965.00;;;;5115693;28;20305;-87
2022/08/11 00:21:10;;;;;;;1.40;1.10;;;21.80;50.70;22.30;96966.00;;;;5115858;28;20292;-87
2022/08/11 00:23:44;;;;;;;1.10;1.00;;;21.80;50.50;22.30;96969.00;;;;5103408;28;20226;-87
2022/08/11 00:26:12;;;;;;;1.20;1.10;;;21.80;50.60;22.30;96960.00;;;;5115276;28;20185;-87
2022/08/11 00:28:41;;;;;;;0.93;0.90;;;21.80;50.60;22.30;96959.00;;;;5115484;28;20200;-87
2022/08/11 00:31:22;;;;;;;1.13;1.03;;;21.80;50.60;22.30;96960.00;;;;5115010;28;20197;-88
2022/08/11 00:33:52;;;;;;;1.33;1.23;;;21.80;50.80;22.30;96966.00;;;;5102009;28;20569;-87
2022/08/11 00:36:27;;;;;;;1.57;1.40;;;21.80;50.80;22.30;96964.00;;;;5107228;28;20591;-87
2022/08/11 00:39:04;;;;;;;1.00;1.00;;;21.80;50.70;22.30;96965.00;;;;5094893;28;20242;-87
2022/08/11 00:41:41;;;;;;;1.30;1.20;;;21.80;50.70;22.30;96971.00;;;;5109546;28;20269;-87
2022/08/11 00:44:27;;;;;;;1.20;1.10;;;21.80;50.70;22.30;96970.00;;;;5114815;28;20223;-87
2022/08/11 00:47:16;;;;;;;1.87;1.00;;;21.80;50.70;22.30;96969.00;;;;5109993;28;20243;-87
2022/08/11 00:50:02;;;;;;;2.00;1.20;;;21.80;50.80;22.30;96967.00;;;;5112827;28;20233;-87
2022/08/11 00:53:12;;;;;;;1.20;1.20;;;21.80;50.90;22.30;96960.00;;;;5094655;28;20263;-87
2022/08/11 00:56:45;;;;;;;1.50;1.07;;;21.80;50.90;22.20;96960.00;;;;5082584;28;20699;-87
2022/08/11 00:59:46;;;;;;;2.40;1.00;;;21.80;50.90;22.20;96964.00;;;;5106775;28;20634;-87
2022/08/11 01:02:19;;;;;;;1.17;1.07;;;21.80;50.80;22.20;96960.00;;;;5101896;28;20240;-87
2022/08/11 01:05:37;;;;;;;2.50;1.30;;;21.70;50.80;22.10;96951.00;;;;5105923;28;20203;-87
2022/08/11 01:08:46;;;;;;;1.40;1.30;;;21.70;51.00;22.10;96955.00;;;;5095104;28;20255;-87
2022/08/11 01:12:04;;;;;;;1.17;1.17;;;21.70;51.00;22.00;96953.00;;;;5115068;28;20265;-87
2022/08/11 01:15:28;;;;;;;1.43;1.27;;;21.60;51.00;22.00;96952.00;;;;5087607;28;20236;-87
2022/08/11 01:18:39;;;;;;;1.27;1.17;;;21.60;51.00;21.90;96946.00;;;;5094256;28;20288;-87
2022/08/11 01:21:57;;;;;;;1.00;1.00;;;21.60;51.20;21.90;96949.00;;;;5094919;28;20225;-84
2022/08/11 01:25:24;;;;;;;1.40;1.30;;;21.50;51.90;21.90;96947.00;;;;5108128;28;20191;-86
2022/08/11 01:28:58;;;;;;;1.30;1.20;;;21.50;51.40;21.80;96948.00;;;;5114372;28;20307;-87
2022/08/11 01:32:33;;;;;;;2.03;1.13;;;21.50;51.50;21.70;96948.00;;;;5096982;28;20294;-86
2022/08/11 01:35:40;;;;;;;1.47;1.37;;;21.40;51.60;21.70;96953.00;;;;5112477;28;20299;-86
2022/08/11 01:38:46;;;;;;;1.10;1.10;;;21.40;51.70;21.60;96946.00;;;;5114133;28;20226;-86
2022/08/11 01:45:07;;;;;;;1.27;1.20;;;21.30;51.80;21.60;96936.00;;;;5113586;28;20704;-87
2022/08/11 01:47:52;;;;;;;1.20;1.10;;;21.30;51.80;21.60;96945.00;;;;5104149;28;20274;-87
2022/08/11 01:50:39;;;;;;;1.30;1.20;;;21.20;51.60;21.60;96950.00;;;;5103622;28;20190;-87
2022/08/11 01:53:21;;;;;;;1.60;1.50;;;21.20;51.90;21.60;96946.00;;;;5113457;28;20209;-87
2022/08/11 01:56:04;;;;;;;1.27;1.17;;;21.20;52.10;21.60;96944.00;;;;5112350;28;20193;-86
2022/08/11 01:58:57;;;;;;;1.10;1.00;;;21.20;52.10;21.50;96946.00;;;;5098740;28;20221;-87
2022/08/11 02:01:45;;;;;;;1.40;1.03;;;21.20;52.30;21.50;96942.00;;;;5113911;28;20180;-87
2022/08/11 02:04:25;;;;;;;1.83;1.27;;;21.10;52.30;21.50;96938.00;;;;5106725;28;20187;-87
2022/08/11 02:07:08;;;;;;;1.40;1.30;;;21.10;52.20;21.50;96942.00;;;;5105460;28;20700;-87
2022/08/11 02:09:56;;;;;;;1.53;1.37;;;21.10;52.30;21.50;96941.00;;;;5111666;28;20300;-87
2022/08/11 02:12:45;;;;;;;1.40;1.20;;;21.10;52.60;21.50;96934.00;;;;5113865;28;20214;-87
2022/08/11 02:15:25;;;;;;;1.10;1.00;;;21.10;52.60;21.50;96933.00;;;;5111707;28;20195;-85
2022/08/11 02:18:05;;;;;;;1.50;1.40;;;21.10;52.60;21.50;96937.00;;;;5095583;28;20234;-87
2022/08/11 02:23:43;;;;;;;1.57;1.20;;;21.00;52.60;21.40;96929.00;;;;5099099;28;20361;-87
2022/08/11 02:26:20;;;;;;;1.30;1.20;;;21.00;52.60;21.40;96922.00;;;;5098895;28;20259;-87
2022/08/11 02:29:10;;;;;;;1.00;1.00;;;21.00;52.60;21.40;96924.00;;;;5113644;28;20275;-87
2022/08/11 02:35:01;;;;;;;1.80;1.40;;;21.00;52.80;21.30;96917.00;;;;5055522;28;20201;-87
2022/08/11 02:37:48;;;;;;;1.00;1.00;;;20.90;52.60;21.30;96914.00;;;;5093351;28;20247;-87
2022/08/11 02:40:27;;;;;;;1.67;1.30;;;20.90;52.80;21.30;96911.00;;;;5113260;28;20183;-86
2022/08/11 02:43:09;;;;;;;1.70;1.60;;;20.90;52.80;21.30;96910.00;;;;5113423;28;20281;-86
2022/08/11 02:45:54;;;;;;;1.50;1.40;;;20.90;53.00;21.20;96911.00;;;;5110768;28;20551;-87
2022/08/11 02:51:52;;;;;;;1.33;1.23;;;20.80;53.00;21.20;96914.00;;;;5092716;28;20182;-87
2022/08/11 02:54:31;;;;;;;1.93;1.50;;;20.80;53.10;21.20;96906.00;;;;5103251;28;20198;-87
2022/08/11 02:57:09;;;;;;;1.73;1.63;;;20.80;53.10;21.10;96912.00;;;;5108214;28;20261;-87
2022/08/11 02:59:51;;;;;;;1.23;1.20;;;20.80;53.20;21.10;96911.00;;;;5112731;28;20632;-87
2022/08/11 03:03:00;;;;;;;1.83;1.30;;;20.70;53.30;21.10;96922.00;;;;5112867;28;20572;-87
2022/08/11 03:05:48;;;;;;;1.90;1.57;;;20.70;53.40;21.00;96912.00;;;;5112261;28;20198;-87
2022/08/11 03:08:47;;;;;;;1.63;1.40;;;20.70;53.30;21.00;96911.00;;;;5112383;28;20227;-88
2022/08/11 03:17:28;;;;;;;2.03;1.63;;;20.60;53.40;20.90;96899.00;;;;5104126;28;20225;-87
2022/08/11 03:20:11;;;;;;;1.57;1.47;;;20.60;53.60;20.90;96907.00;;;;5112358;28;20215;-87
2022/08/11 03:22:57;;;;;;;1.77;1.50;;;20.50;53.60;20.90;96910.00;;;;5112591;28;20187;-87
2022/08/11 03:25:34;;;;;;;1.73;1.30;;;20.50;53.70;20.80;96906.00;;;;5111158;28;20218;-85
2022/08/11 03:28:21;;;;;;;1.30;1.20;;;20.50;53.70;20.80;96915.00;;;;5109187;28;20252;-86
2022/08/11 03:31:05;;;;;;;1.60;1.40;;;20.50;53.70;20.80;96922.00;;;;5112359;28;20187;-87
2022/08/11 03:36:55;;;;;;;1.53;1.43;;;20.40;53.80;20.70;96916.00;;;;5108321;28;20733;-87
2022/08/11 03:39:37;;;;;;;2.50;1.43;;;20.40;54.10;20.70;96916.00;;;;5097304;28;20279;-87
2022/08/11 03:42:24;;;;;;;1.73;1.63;;;20.40;53.90;20.70;96912.00;;;;5106446;28;20274;-87
2022/08/11 03:45:07;;;;;;;1.50;1.40;;;20.30;54.00;20.60;96922.00;;;;5105179;28;20186;-87
2022/08/11 03:48:12;;;;;;;1.60;1.50;;;20.40;54.20;20.60;96914.00;;;;5112055;28;20246;-87
2022/08/11 03:51:01;;;;;;;1.60;1.50;;;20.30;54.30;20.60;96920.00;;;;5112137;28;20182;-87
2022/08/11 03:54:06;;;;;;;1.13;1.13;;;20.20;54.30;20.50;96912.00;;;;5111615;28;20230;-87
2022/08/11 03:57:33;;;;;;;1.33;1.23;;;20.20;54.50;20.50;96917.00;;;;5107662;28;20214;-87
2022/08/11 04:00:45;;;;;;;1.50;1.40;;;20.20;54.50;20.50;96921.00;;;;5085094;28;20774;-86
2022/08/11 04:04:03;;;;;;;1.33;1.23;;;20.20;54.60;20.40;96913.00;;;;5112287;28;20292;-86
2022/08/11 04:07:32;;;;;;;2.40;1.90;;;20.10;54.50;20.40;96910.00;;;;5110804;28;20278;-87
2022/08/11 04:10:41;;;;;;;1.93;1.43;;;20.10;54.60;20.40;96903.00;;;;5107632;28;20183;-87
2022/08/11 04:15:58;;;;;;;1.87;1.60;;;20.10;54.70;20.40;96903.00;;;;5113529;28;20196;-86
2022/08/11 04:16:47;;;;;;;1.73;1.30;;;20.00;54.80;20.40;96907.00;;;;5108592;28;20221;-87
2022/08/11 04:19:57;;;;;;;1.67;1.57;;;20.00;54.50;20.30;96909.00;;;;5107912;28;20230;-87
2022/08/11 04:23:02;;;;;;;1.57;1.40;;;20.00;55.00;20.30;96906.00;;;;5111982;28;20195;-87
2022/08/11 04:26:32;;;;;;;1.60;1.47;;;20.00;54.90;20.30;96898.00;;;;5107938;28;20199;-87
2022/08/11 04:29:18;;;;;;;2.73;1.30;;;20.00;55.10;20.30;96900.00;;;;5103587;28;20195;-86
2022/08/11 04:32:14;;;;;;;1.70;1.60;;;19.90;55.00;20.30;96901.00;;;;5103885;28;20214;-87
2022/08/11 04:34:59;;;;;;;1.60;1.50;;;19.90;55.10;20.30;96906.00;;;;5110764;28;20575;-87
2022/08/11 04:38:05;;;;;;;1.83;1.67;;;19.90;55.00;20.30;96904.00;;;;5103297;28;20298;-87
2022/08/11 04:41:13;;;;;;;1.60;1.50;;;19.90;55.30;20.30;96908.00;;;;5109776;28;20225;-87
2022/08/11 04:44:43;;;;;;;1.43;1.33;;;19.90;55.30;20.20;96908.00;;;;5115184;28;20289;-87
2022/08/11 05:03:43;;;;;;;2.97;1.20;;;19.90;55.80;20.30;96916.00;;;;5114457;28;20213;-87
2022/08/11 05:06:47;;;;;;;1.83;1.40;;;19.90;55.70;20.30;96919.00;;;;5114720;28;20238;-87
2022/08/11 05:09:46;;;;;;;1.67;1.50;;;19.90;55.70;20.40;96917.00;;;;5114540;28;20281;-87
2022/08/11 05:12:30;;;;;;;2.17;1.30;;;19.90;55.70;20.40;96917.00;;;;5094346;28;20207;-87
2022/08/11 05:35:31;;;;;;;1.43;1.33;;;20.20;56.00;20.70;96923.00;;;;5113542;28;20194;-85
2022/08/11 05:57:57;;;;;;;1.53;1.43;;;20.50;56.30;21.10;96925.00;;;;5113898;28;20276;-86
2022/08/11 06:00:25;;;;;;;1.80;1.40;;;20.50;56.30;21.10;96932.00;;;;5112202;28;20694;-87
2022/08/11 06:02:57;;;;;;;1.70;1.47;;;20.60;56.10;21.20;96936.00;;;;5112205;28;20222;-86
2022/08/11 06:05:33;;;;;;;1.53;1.43;;;20.60;56.10;21.30;96923.00;;;;5113192;28;20671;-87
2022/08/11 06:08:02;;;;;;;1.77;1.67;;;20.70;56.30;21.30;96925.00;;;;5113354;28;20222;-87
2022/08/11 06:10:34;;;;;;;1.53;1.43;;;20.70;56.20;21.40;96922.00;;;;5113492;28;20671;-87
2022/08/11 06:13:06;;;;;;;1.60;1.47;;;20.80;56.30;21.50;96921.00;;;;5113487;28;20279;-88
2022/08/11 06:15:43;;;;;;;1.70;1.60;;;20.80;56.10;21.50;96925.00;;;;5112825;28;20229;-86
2022/08/11 06:18:12;;;;;;;1.73;1.63;;;20.90;55.90;21.60;96937.00;;;;5113456;28;20300;-87
2022/08/11 06:20:48;;;;;;;1.87;1.40;;;21.00;55.80;21.60;96934.00;;;;5113205;28;20262;-88
2022/08/11 06:23:18;;;;;;;1.47;1.37;;;21.00;55.90;21.70;96929.00;;;;5113297;28;20171;-87
2022/08/11 06:25:46;;;;;;;2.03;1.33;;;21.10;55.80;21.70;96930.00;;;;5109326;28;20246;-88
2022/08/11 06:28:18;;;;;;;2.20;1.60;;;21.10;55.60;21.80;96929.00;;;;5112073;28;20247;-88
2022/08/11 06:30:47;;;;;;;1.50;1.40;;;21.20;55.70;21.90;96929.00;;;;5112995;28;20681;-88
2022/08/11 06:33:21;;;;;;;1.30;1.20;;;21.30;55.60;21.90;96936.00;;;;5112932;28;20690;-88
2022/08/11 06:36:02;;;;;;;1.53;1.33;;;21.30;55.40;22.00;96937.00;;;;5112866;28;20197;-88
2022/08/11 06:38:51;;;;;;;2.00;1.20;;;21.40;55.30;22.10;96939.00;;;;5113253;28;20286;-87
2022/08/11 06:41:32;;;;;;;1.90;1.40;;;21.50;55.50;22.20;96935.00;;;;5113198;28;20589;-87
2022/08/11 06:44:17;;;;;;;1.23;1.13;;;21.50;55.20;22.20;96940.00;;;;5113181;28;20191;-87
2022/08/11 06:46:49;;;;;;;2.03;1.40;;;21.60;55.30;22.30;96938.00;;;;5112463;28;20273;-88
2022/08/11 06:52:12;;;;;;;1.47;1.37;;;21.70;55.20;22.50;96936.00;;;;5106958;28;20565;-87
2022/08/11 06:54:48;;;;;;;1.43;1.33;;;21.80;55.10;22.60;96933.00;;;;5112151;28;20284;-87
2022/08/11 07:00:27;;;;;;;1.70;1.30;;;22.00;54.90;22.70;96940.00;;;;5102531;28;20773;-88
2022/08/11 07:03:02;;;;;;;1.60;1.50;;;22.10;54.90;22.80;96936.00;;;;5107903;27;20191;-87
2022/08/11 07:05:45;;;;;;;3.40;1.90;;;22.20;54.90;23.00;96941.00;;;;5108793;28;20205;-87
2022/08/11 07:17:48;;;;;;;2.17;1.37;;;22.60;54.80;23.60;96938.00;;;;5109338;28;20240;-87
2022/08/11 07:28:57;;;;;;;2.50;1.50;;;23.20;54.50;24.40;96934.00;;;;5112111;28;20203;-87
2022/08/11 07:31:34;;;;;;;1.37;1.27;;;23.40;54.30;24.60;96932.00;;;;5111557;28;20252;-87
2022/08/11 07:34:18;;;;;;;1.47;1.37;;;23.60;54.30;24.90;96934.00;;;;5109678;28;20655;-88
2022/08/11 07:36:52;;;;;;;1.53;1.10;;;23.80;53.80;25.10;96931.00;;;;5111610;28;20212;-88
2022/08/11 07:39:23;;;;;;;1.40;1.30;;;24.00;53.70;25.30;96934.00;;;;5100122;28;20304;-88
2022/08/11 07:41:56;;;;;;;1.30;1.20;;;24.20;53.50;25.50;96940.00;;;;5112313;28;20290;-88
2022/08/11 07:44:24;;;;;;;1.60;1.40;;;24.30;53.00;25.70;96934.00;;;;5111385;28;20659;-87
2022/08/11 07:52:35;;;;;;;1.50;1.40;;;24.90;52.20;26.30;96938.00;;;;5099721;28;20206;-87
2022/08/11 07:55:07;;;;;;;1.83;1.20;;;25.10;51.90;26.40;96937.00;;;;5111296;28;20285;-88
2022/08/11 08:19:47;;;;;;;1.90;1.00;;;26.60;49.70;28.00;96937.00;;;;5115778;28;20205;-87
2022/08/11 08:22:20;;;;;;;2.33;1.13;;;26.80;49.40;28.10;96933.00;;;;5116160;28;20602;-88
2022/08/11 08:24:48;;;;;;;1.43;1.13;;;26.90;48.90;28.30;96940.00;;;;5115292;28;20180;-88
2022/08/11 08:27:17;;;;;;;2.40;1.00;;;27.10;49.60;28.50;96944.00;;;;5115424;28;20313;-88
2022/08/11 08:32:41;;;;;;;1.43;1.00;;;27.40;48.70;28.90;96934.00;;;;5057087;28;20201;-87
2022/08/11 08:35:11;;;;;;;3.53;1.30;;;27.60;48.20;29.10;96942.00;;;;5115232;28;20277;-89
2022/08/11 08:37:40;;;;;;;1.13;1.13;;;27.70;47.90;29.20;96939.00;;;;5114825;28;20218;-88
2022/08/11 08:40:10;;;;;;;1.27;1.10;;;27.90;47.70;29.40;96944.00;;;;5114601;28;20305;-87
2022/08/11 08:42:46;;;;;;;1.38;1.05;;;28.00;47.60;29.60;96940.00;;;;5115521;28;20731;-89
2022/08/11 08:45:17;;;;;;;1.73;1.00;;;28.20;47.30;29.80;96939.00;;;;5114250;28;20225;-88
2022/08/11 08:47:52;;;;;;;0.98;0.98;;;28.40;47.10;30.00;96945.00;;;;5114833;28;20309;-88
2022/08/11 08:51:32;;;;;;;1.30;1.20;;;28.60;46.50;30.10;96947.00;;;;5114263;27;20198;-89
2022/08/11 08:53:13;;;;;;;1.33;0.98;;;28.70;45.80;30.30;96943.00;;;;5107155;28;20201;-89
2022/08/11 08:55:42;;;;;;;1.02;0.93;;;28.90;46.10;30.50;96962.00;;;;5113596;28;20187;-89
2022/08/11 08:58:11;;;;;;;1.20;1.10;;;29.10;45.80;30.70;96946.00;;;;5114893;28;20238;-90
2022/08/11 09:00:44;;;;;;;1.08;1.08;;;29.30;45.60;30.90;96949.00;;;;5100833;28;20662;-91
2022/08/11 09:03:12;;;;;;;1.08;1.05;;;29.40;45.20;31.10;96952.00;;;;5109865;28;20213;-91
2022/08/11 09:05:41;;;;;;;1.50;0.95;;;29.60;44.90;31.30;96951.00;;;;5110845;28;20683;-90
2022/08/11 09:08:11;;;;;;;1.55;1.13;;;29.70;44.60;31.50;96950.00;;;;5114566;28;20715;-90
2022/08/11 09:10:39;;;;;;;0.80;0.80;;;29.90;44.10;31.60;96947.00;;;;5114728;28;20229;-88
2022/08/11 09:13:08;;;;;;;1.30;0.70;;;30.10;43.90;31.80;96958.00;;;;5114903;28;20226;-90
2022/08/11 09:15:36;;;;;;;0.80;0.80;;;30.20;43.60;32.00;96959.00;;;;5109912;28;20233;-92
2022/08/11 09:18:08;;;;;;;0.85;0.82;;;30.40;43.40;32.10;96956.00;;;;5100886;28;20650;-93
2022/08/11 09:20:38;;;;;;;0.80;0.80;;;30.50;43.00;32.30;96959.00;;;;5104136;28;20218;-92
2022/08/11 09:28:45;;;;;;;1.08;1.00;;;31.00;42.00;32.80;96956.00;;;;5101258;28;20296;-90
2022/08/11 09:31:14;;;;;;;0.77;0.77;;;31.20;42.00;33.00;96956.00;;;;5113958;28;20276;-90
2022/08/11 09:33:44;;;;;;;0.80;0.80;;;31.40;41.50;33.20;96967.00;;;;5112070;28;20856;-89
2022/08/11 09:41:48;;;;;;;2.45;0.80;;;31.80;40.70;33.60;96970.00;;;;5094332;28;20232;-90
2022/08/11 09:47:01;;;;;;;0.80;0.80;;;32.10;40.30;34.00;96959.00;;;;5112602;28;20706;-88
2022/08/11 09:49:30;;;;;;;0.90;0.90;;;32.30;40.00;34.10;96963.00;;;;5112671;28;20235;-87
2022/08/11 09:51:58;;;;;;;1.05;0.80;;;32.40;39.80;34.30;96964.00;;;;5108302;28;20309;-88
2022/08/11 09:54:26;;;;;;;2.22;0.98;;;32.50;39.60;34.60;96963.00;;;;5110496;28;20196;-89
2022/08/11 09:59:41;;;;;;;2.75;0.80;;;32.80;39.00;35.00;96957.00;;;;5102466;28;20222;-88
2022/08/11 10:02:11;;;;;;;1.08;0.70;;;33.00;38.90;35.20;96956.00;;;;5103450;28;20262;-88
2022/08/11 10:04:44;;;;;;;0.98;0.80;;;33.20;38.70;35.50;96953.00;;;;5111841;28;20293;-88
2022/08/11 10:07:13;;;;;;;0.73;0.73;;;33.30;38.60;35.70;96947.00;;;;5104573;28;20211;-88
2022/08/11 10:09:48;;;;;;;1.13;0.77;;;33.50;38.70;35.90;96956.00;;;;5093243;28;20286;-87
2022/08/11 10:12:24;;;;;;;1.42;0.73;;;33.60;37.30;35.90;96951.00;;;;5107006;28;20206;-89
2022/08/11 10:20:29;;;;;;;1.52;1.00;;;34.00;37.10;35.90;96938.00;;;;5110860;28;21040;-89
2022/08/11 10:28:45;;;;;;;1.15;0.70;;;34.20;36.80;36.00;96939.00;;;;5112983;28;20218;-88
2022/08/11 10:34:02;;;;;;;1.75;0.88;;;34.40;36.60;36.10;96929.00;;;;5100983;28;20560;-88
2022/08/11 10:36:33;;;;;;;0.60;0.60;;;34.50;36.30;36.10;96943.00;;;;5118354;27;20219;-88
2022/08/11 10:39:06;;;;;;;1.35;0.80;;;34.60;36.30;36.20;96934.00;;;;5107354;28;20240;-88
2022/08/11 10:44:23;;;;;;;1.27;0.80;;;34.80;35.60;36.20;96929.00;;;;5113257;28;20745;-89
2022/08/11 10:49:38;;;;;;;2.83;0.85;;;34.90;35.30;36.20;96926.00;;;;5112912;28;20196;-89
2022/08/11 11:00:23;;;;;;;0.85;0.85;;;35.00;34.20;35.70;96909.00;;;;5112449;28;20216;-88
2022/08/11 11:02:52;;;;;;;0.55;0.55;;;34.90;34.10;35.60;96906.00;;;;5112726;28;20199;-88
2022/08/11 11:05:26;;;;;;;0.70;0.70;;;34.80;34.10;35.40;96901.00;;;;5112061;28;20233;-89
2022/08/11 11:08:51;;;;;;;1.00;0.80;;;34.80;33.70;35.20;96901.00;;;;5112316;28;20266;-87
2022/08/11 11:10:57;;;;;;;1.58;0.75;;;34.60;34.00;35.10;96902.00;;;;5099385;28;20198;-87
2022/08/11 11:19:11;;;;;;;0.70;0.70;;;34.20;34.30;34.60;96894.00;;;;5081724;22;20681;-78
2022/08/11 11:21:45;;;;;;;0.70;0.70;;;34.10;34.60;34.50;96900.00;;;;5099184;28;20215;-79
2022/08/11 11:24:40;;;;;;;2.58;0.93;;;33.90;34.80;34.40;96898.00;;;;5092905;28;20195;-79
2022/08/11 11:27:26;;;;;;;0.90;0.90;;;33.80;34.60;34.20;96894.00;;;;5088224;28;20207;-79
2022/08/11 11:30:13;;;;;;;0.80;0.80;;;33.60;34.70;34.00;96891.00;;;;5082281;28;20215;-79
2022/08/11 11:33:11;;;;;;;1.02;0.90;;;33.50;34.80;33.90;96892.00;;;;5076892;28;20277;-78
2022/08/11 11:35:58;;;;;;;1.15;0.90;;;33.30;35.10;33.80;96897.00;;;;5082428;28;20238;-81
2022/08/11 11:38:30;;;;;;;0.82;0.82;;;33.20;35.00;33.70;96892.00;;;;5078350;28;20215;-81
2022/08/11 11:43:48;;;;;;;1.17;1.00;;;32.90;35.00;33.40;96894.00;;;;5080173;28;20226;-81
2022/08/11 11:46:26;;;;;;;0.80;0.80;;;32.80;35.10;33.30;96888.00;;;;5076195;28;20697;-81
2022/08/11 11:49:07;;;;;;;0.80;0.80;;;32.70;35.30;33.20;96883.00;;;;5067281;28;20713;-81
2022/08/11 11:51:37;;;;;;;0.93;0.70;;;32.60;35.00;33.10;96885.00;;;;5079563;28;20203;-82
2022/08/11 11:54:06;;;;;;;2.35;0.90;;;32.40;35.50;33.00;96894.00;;;;5074747;28;20234;-82
2022/08/11 11:56:35;;;;;;;2.17;0.82;;;32.40;35.70;32.90;96880.00;;;;5083588;28;20199;-82
2022/08/11 12:01:49;;;;;;;0.80;0.80;;;32.20;35.60;32.80;96880.00;;;;5081993;28;20266;-83
2022/08/11 12:04:21;;;;;;;1.85;0.88;;;32.10;35.70;32.80;96876.00;;;;5080620;28;20197;-81
2022/08/11 12:06:51;;;;;;;1.33;1.20;;;32.10;35.60;32.70;96890.00;;;;5083248;28;20663;-82
2022/08/11 12:09:22;;;;;;;0.68;0.68;;;32.00;35.40;32.70;96877.00;;;;5080141;28;20212;-81
2022/08/11 12:14:37;;;;;;;0.70;0.70;;;31.90;35.40;32.60;96876.00;;;;5078676;28;20195;-81
2022/08/11 12:17:05;;;;;;;1.42;0.77;;;31.80;35.60;32.60;96882.00;;;;5080374;28;20204;-81
2022/08/11 12:19:34;;;;;;;1.50;0.70;;;31.80;35.80;32.50;96869.00;;;;5079845;28;20227;-81
2022/08/11 12:27:32;;;;;;;0.60;0.60;;;31.70;35.40;32.40;96867.00;;;;5079302;28;20202;-81
2022/08/11 12:30:07;;;;;;;1.58;0.80;;;31.70;35.60;32.40;96862.00;;;;5080662;28;20230;-81
2022/08/11 12:32:38;;;;;;;1.50;0.70;;;31.60;35.80;32.30;96855.00;;;;5080393;28;20215;-81
2022/08/11 12:35:10;;;;;;;0.70;0.70;;;31.60;35.70;32.30;96854.00;;;;5079587;28;20744;-81
2022/08/11 12:37:42;;;;;;;0.95;0.77;;;31.50;35.30;32.30;96851.00;;;;5078815;28;20206;-81
2022/08/11 12:45:57;;;;;;;0.60;0.60;;;31.50;35.20;32.20;96844.00;;;;5078943;28;20192;-81
2022/08/11 12:54:14;;;;;;;0.93;0.80;;;31.30;35.00;32.10;96842.00;;;;5077931;28;20281;-81
2022/08/11 13:05:11;;;;;;;0.95;0.70;;;31.30;35.40;32.10;96833.00;;;;5078232;28;20218;-81
2022/08/11 13:07:44;;;;;;;0.80;0.73;;;31.30;35.00;32.00;96839.00;;;;5073814;28;20196;-81
2022/08/11 13:12:46;;;;;;;0.85;0.85;;;31.30;34.90;32.00;96831.00;;;;5077702;28;20222;-81
2022/08/11 13:13:04;;;;;;;0.75;0.75;;;31.20;35.30;32.00;96833.00;;;;5073705;28;20197;-82
2022/08/11 13:15:32;;;;;;;0.60;0.60;;;31.20;35.70;32.10;96827.00;;;;5087295;28;20207;-81
2022/08/11 13:18:03;;;;;;;0.85;0.75;;;31.20;35.80;32.10;96824.00;;;;5078464;28;20195;-81
2022/08/11 13:20:33;;;;;;;1.60;1.00;;;31.20;35.90;32.10;96831.00;;;;5075094;28;20223;-81
2022/08/11 13:23:06;;;;;;;2.70;0.73;;;31.20;35.60;32.20;96819.00;;;;5075027;28;20237;-81
2022/08/11 13:25:33;;;;;;;0.70;0.70;;;31.30;35.60;32.20;96815.00;;;;5074093;28;20184;-81
2022/08/11 13:28:02;;;;;;;0.60;0.60;;;31.30;35.00;32.20;96812.00;;;;5072708;28;20199;-81
2022/08/11 13:33:18;;;;;;;0.60;0.60;;;31.30;35.20;32.20;96818.00;;;;5074447;28;20246;-82
2022/08/11 13:35:48;;;;;;;0.68;0.68;;;31.30;35.60;32.30;96812.00;;;;5071693;28;20200;-81
2022/08/11 13:38:20;;;;;;;1.95;0.73;;;31.30;35.30;32.30;96814.00;;;;5072151;28;20673;-81
2022/08/11 13:40:49;;;;;;;1.17;0.70;;;31.40;35.00;32.30;96812.00;;;;5073745;28;20254;-78
2022/08/11 13:43:20;;;;;;;1.40;0.60;;;31.40;35.40;32.30;96814.00;;;;5077923;28;20224;-80
2022/08/11 13:46:17;;;;;;;0.73;0.73;;;31.40;34.90;32.30;96810.00;;;;5076313;28;20200;-80
2022/08/11 13:48:42;;;;;;;3.38;0.70;;;31.40;34.80;32.30;96806.00;;;;5074442;28;20775;-80
2022/08/11 13:53:58;;;;;;;1.45;0.75;;;31.40;35.10;32.40;96805.00;;;;5075081;28;20195;-80
2022/08/11 13:56:27;;;;;;;0.80;0.80;;;31.50;35.10;32.40;96808.00;;;;5073850;28;20200;-80
2022/08/11 13:58:56;;;;;;;1.02;0.50;;;31.50;35.20;32.40;96809.00;;;;5075794;28;20208;-80
2022/08/11 14:01:31;;;;;;;1.40;0.80;;;31.50;35.10;32.40;96798.00;;;;5071415;28;20279;-80
2022/08/11 14:04:08;;;;;;;2.03;0.75;;;31.50;35.10;32.50;96807.00;;;;5073964;28;20191;-80
2022/08/11 14:06:41;;;;;;;1.30;0.70;;;31.50;35.30;32.50;96799.00;;;;5076060;28;20226;-80
2022/08/11 14:09:12;;;;;;;1.02;0.80;;;31.50;35.10;32.50;96795.00;;;;5073779;28;20272;-81
2022/08/11 14:14:35;;;;;;;1.23;0.68;;;31.60;35.20;32.50;96795.00;;;;5074738;28;20258;-80
2022/08/11 14:17:07;;;;;;;0.88;0.70;;;31.60;35.70;32.50;96789.00;;;;5075479;28;20208;-80
2022/08/11 14:19:45;;;;;;;2.17;0.73;;;31.60;34.60;32.50;96801.00;;;;5075982;28;20269;-81
2022/08/11 14:22:15;;;;;;;0.77;0.63;;;31.60;34.70;32.50;96798.00;;;;5077410;28;20215;-81
2022/08/11 14:24:48;;;;;;;0.90;0.70;;;31.60;34.80;32.50;96798.00;;;;5077393;28;20283;-81
2022/08/11 14:27:17;;;;;;;0.60;0.60;;;31.60;34.60;32.50;96803.00;;;;5078616;28;20290;-81
2022/08/11 14:29:46;;;;;;;2.65;0.60;;;31.60;34.60;32.50;96805.00;;;;5075221;28;20917;-81
2022/08/11 14:32:15;;;;;;;1.30;0.90;;;31.60;34.40;32.50;96794.00;;;;5074557;28;20202;-82
2022/08/11 14:34:45;;;;;;;0.88;0.70;;;31.50;34.60;32.50;96799.00;;;;5073471;28;20195;-82
2022/08/11 14:37:18;;;;;;;0.63;0.50;;;31.50;34.60;32.50;96797.00;;;;5075759;28;20222;-81
2022/08/11 14:39:52;;;;;;;0.60;0.60;;;31.50;34.80;32.40;96802.00;;;;5072380;28;20227;-81
2022/08/11 14:48:01;;;;;;;0.55;0.55;;;31.50;34.40;32.30;96800.00;;;;5077528;28;20195;-81
2022/08/11 14:50:32;;;;;;;0.57;0.57;;;31.50;34.50;32.30;96795.00;;;;5073848;28;20201;-81
2022/08/11 14:53:04;;;;;;;2.70;0.75;;;31.40;34.40;32.40;96803.00;;;;5078189;28;20211;-81
2022/08/11 14:58:27;;;;;;;0.50;0.50;;;31.40;34.40;32.30;96797.00;;;;5074306;28;21116;-80
2022/08/11 15:00:59;;;;;;;0.80;0.80;;;31.40;34.60;32.30;96800.00;;;;5074322;28;20220;-81
2022/08/11 15:03:33;;;;;;;0.57;0.57;;;31.40;34.20;32.30;96798.00;;;;5071965;28;20199;-80
2022/08/11 15:06:03;;;;;;;1.45;0.75;;;31.40;34.20;32.30;96793.00;;;;5062497;28;20203;-81
2022/08/11 15:08:56;;;;;;;0.60;0.50;;;31.40;34.10;32.30;96796.00;;;;5068445;28;20251;-80
2022/08/11 15:17:06;;;;;;;1.38;0.60;;;31.40;34.20;32.30;96793.00;;;;5074406;28;20233;-80
2022/08/11 15:17:11;;;;;;;0.70;0.70;;;31.30;34.30;32.30;96790.00;;;;5070264;28;20184;-80
2022/08/11 15:24:18;;;;;;;0.60;0.60;;;31.30;34.30;32.30;96787.00;;;;5071999;28;20281;-80
2022/08/11 15:25:23;;;;;;;0.47;0.47;;;31.40;34.00;32.30;96784.00;;;;5073765;28;20211;-80
2022/08/11 15:39:19;;;;;;;1.20;0.60;;;31.30;34.10;32.10;96779.00;;;;5071778;28;20728;-80
2022/08/11 15:47:48;;;;;;;0.60;0.60;;;31.20;33.80;32.00;96774.00;;;;5073616;28;20187;-80
2022/08/11 15:50:20;;;;;;;0.80;0.60;;;31.20;33.80;32.00;96765.00;;;;5078221;28;20227;-80
2022/08/11 15:52:55;;;;;;;0.63;0.63;;;31.10;33.60;31.90;96763.00;;;;5077486;28;20203;-80
2022/08/11 15:55:25;;;;;;;0.38;0.38;;;31.10;33.60;31.90;96762.00;;;;5076716;28;20225;-80
2022/08/11 16:06:26;;;;;;;0.45;0.45;;;30.90;33.50;31.60;96755.00;;;;5076385;28;20754;-80
2022/08/11 16:08:58;;;;;;;1.02;0.47;;;30.90;33.60;31.60;96760.00;;;;5074370;28;20231;-80
2022/08/11 16:11:27;;;;;;;1.10;0.50;;;30.80;33.70;31.50;96760.00;;;;5075853;28;20279;-81
2022/08/11 16:16:44;;;;;;;0.98;0.70;;;30.70;33.70;31.40;96762.00;;;;5076067;28;20203;-81
2022/08/11 16:19:15;;;;;;;0.80;0.57;;;30.60;33.60;31.40;96755.00;;;;5073185;28;20321;-81